createdAt,value
2019-02-18T00:02:10.688Z,5.70
2019-02-18T00:04:39.510Z,5.70
2019-02-18T00:07:14.484Z,5.70
2019-02-18T00:09:38.934Z,5.70
2019-02-18T00:12:07.973Z,5.70
2019-02-18T00:14:36.965Z,5.70
2019-02-18T00:17:05.622Z,5.70
2019-02-18T00:19:34.615Z,5.70
2019-02-18T00:22:03.518Z,5.60
2019-02-18T00:24:32.187Z,5.50
2019-02-18T00:27:01.661Z,5.50
2019-02-18T00:29:30.411Z,5.50
2019-02-18T00:31:59.548Z,5.50
2019-02-18T00:34:28.471Z,5.40
2019-02-18T00:36:57.125Z,5.40
2019-02-18T00:39:25.798Z,5.40
2019-02-18T00:41:54.558Z,5.40
2019-02-18T00:44:23.445Z,5.40
2019-02-18T00:46:52.123Z,5.30
2019-02-18T00:49:21.781Z,5.30
2019-02-18T00:51:50.503Z,5.20
2019-02-18T00:54:19.217Z,5.20
2019-02-18T00:56:48.524Z,5.10
2019-02-18T00:59:17.293Z,5.10
2019-02-18T01:01:46.223Z,5.10
2019-02-18T01:04:15.390Z,5.00
2019-02-18T01:06:44.074Z,5.00
2019-02-18T01:09:13.060Z,5.00
2019-02-18T01:11:41.815Z,4.90
2019-02-18T01:14:10.480Z,4.90
2019-02-18T01:16:39.150Z,4.90
2019-02-18T01:19:08.249Z,4.80
2019-02-18T01:21:36.979Z,4.80
2019-02-18T01:24:05.651Z,4.70
2019-02-18T01:26:34.349Z,4.70
2019-02-18T01:29:03.217Z,4.70
2019-02-18T01:31:31.901Z,4.60
2019-02-18T01:34:00.834Z,4.60
2019-02-18T01:36:29.722Z,4.60
2019-02-18T01:38:58.389Z,4.60
2019-02-18T01:41:27.342Z,4.50
2019-02-18T01:43:56.000Z,4.50
2019-02-18T01:46:25.242Z,4.50
2019-02-18T01:48:54.275Z,4.40
2019-02-18T01:51:24.167Z,4.40
2019-02-18T01:53:52.845Z,4.40
2019-02-18T01:56:21.856Z,4.40
2019-02-18T01:58:50.620Z,4.40
2019-02-18T02:01:20.239Z,4.40
2019-02-18T02:03:49.496Z,4.40
2019-02-18T02:06:18.165Z,4.30
2019-02-18T02:08:47.115Z,4.30
2019-02-18T02:11:15.812Z,4.30
2019-02-18T02:13:44.717Z,4.20
2019-02-18T02:16:13.696Z,4.20
2019-02-18T02:18:43.271Z,4.20
2019-02-18T02:21:11.953Z,4.20
2019-02-18T02:23:40.651Z,4.10
2019-02-18T02:26:09.339Z,4.10
2019-02-18T02:28:37.991Z,4.00
2019-02-18T02:31:06.704Z,4.00
2019-02-18T02:33:35.955Z,4.00
2019-02-18T02:36:04.963Z,3.90
2019-02-18T02:38:33.627Z,4.00
2019-02-18T02:41:02.348Z,3.90
2019-02-18T02:43:31.287Z,4.00
2019-02-18T02:45:59.991Z,4.00
2019-02-18T02:48:28.676Z,3.90
2019-02-18T02:50:57.340Z,3.90
2019-02-18T02:53:26.615Z,3.90
2019-02-18T02:55:55.626Z,3.90
2019-02-18T02:58:24.342Z,3.90
2019-02-18T03:00:53.024Z,4.00
2019-02-18T03:03:22.346Z,4.00
2019-02-18T03:05:51.236Z,3.90
2019-02-18T03:08:20.985Z,3.90
2019-02-18T03:10:49.873Z,3.90
2019-02-18T03:13:18.813Z,3.90
2019-02-18T03:15:47.743Z,3.80
2019-02-18T03:18:16.513Z,3.80
2019-02-18T03:20:45.406Z,3.80
2019-02-18T03:23:14.352Z,3.70
2019-02-18T03:25:44.115Z,3.70
2019-02-18T03:28:38.845Z,3.70
2019-02-18T03:31:14.837Z,3.60
2019-02-18T03:33:47.330Z,3.50
2019-02-18T03:36:16.016Z,3.50
2019-02-18T03:38:44.771Z,3.50
2019-02-18T03:41:13.450Z,3.40
2019-02-18T03:43:42.144Z,3.40
2019-02-18T03:46:10.924Z,3.30
2019-02-18T03:48:39.870Z,3.30
2019-02-18T03:51:08.953Z,3.20
2019-02-18T03:53:38.210Z,3.20
2019-02-18T03:56:07.972Z,3.20
2019-02-18T03:58:36.842Z,3.20
2019-02-18T04:01:05.618Z,3.10
2019-02-18T04:03:34.888Z,3.10
2019-02-18T04:06:03.705Z,3.10
2019-02-18T04:08:42.274Z,3.00
2019-02-18T04:11:03.299Z,3.00
2019-02-18T04:13:31.963Z,3.00
2019-02-18T04:16:00.906Z,3.00
2019-02-18T04:18:30.113Z,2.90
2019-02-18T04:20:58.829Z,2.90
2019-02-18T04:23:27.550Z,2.90
2019-02-18T04:25:56.377Z,2.90
2019-02-18T04:28:25.029Z,2.90
2019-02-18T04:30:54.009Z,2.90
2019-02-18T04:33:22.682Z,2.90
2019-02-18T04:35:51.614Z,2.80
2019-02-18T04:38:20.586Z,2.90
2019-02-18T04:40:49.250Z,2.80
2019-02-18T04:43:18.197Z,2.80
2019-02-18T04:45:47.052Z,2.80
2019-02-18T04:48:15.952Z,2.80
2019-02-18T04:50:44.944Z,2.80
2019-02-18T04:53:14.155Z,2.80
2019-02-18T04:55:42.831Z,2.80
2019-02-18T04:58:13.292Z,2.80
2019-02-18T05:00:42.027Z,2.80
2019-02-18T05:03:10.847Z,2.80
2019-02-18T05:05:39.695Z,2.80
2019-02-18T05:08:08.785Z,2.80
2019-02-18T05:10:38.120Z,2.80
2019-02-18T05:13:07.359Z,2.80
2019-02-18T05:15:36.051Z,2.80
2019-02-18T05:18:04.747Z,2.80
2019-02-18T05:20:33.670Z,2.70
2019-02-18T05:23:02.718Z,2.70
2019-02-18T05:25:31.485Z,2.70
2019-02-18T05:28:00.168Z,2.70
2019-02-18T05:30:29.600Z,2.60
2019-02-18T05:32:58.593Z,2.60
2019-02-18T05:35:27.826Z,2.60
2019-02-18T05:37:56.794Z,2.60
2019-02-18T05:40:25.485Z,2.60
2019-02-18T05:42:54.163Z,2.60
2019-02-18T05:45:22.872Z,2.60
2019-02-18T05:47:51.541Z,2.60
2019-02-18T05:50:20.426Z,2.60
2019-02-18T05:52:49.127Z,2.60
2019-02-18T05:55:18.262Z,2.60
2019-02-18T05:57:47.178Z,2.60
2019-02-18T06:00:16.574Z,2.60
2019-02-18T06:02:45.580Z,2.60
2019-02-18T06:05:14.577Z,2.60
2019-02-18T06:07:43.895Z,2.60
2019-02-18T06:10:17.124Z,2.70
2019-02-18T06:12:46.197Z,2.70
2019-02-18T06:15:14.914Z,2.70
2019-02-18T06:17:43.828Z,2.70
2019-02-18T06:20:12.008Z,2.70
2019-02-18T06:22:40.693Z,2.70
2019-02-18T06:25:09.886Z,2.80
2019-02-18T06:27:38.565Z,2.80
2019-02-18T06:30:08.178Z,2.80
2019-02-18T06:32:36.825Z,2.90
2019-02-18T06:35:05.646Z,3.00
2019-02-18T06:37:34.946Z,3.10
2019-02-18T06:40:03.720Z,3.10
2019-02-18T06:42:32.483Z,3.30
2019-02-18T06:45:35.574Z,3.60
2019-02-18T06:48:11.470Z,4.00
2019-02-18T06:50:40.371Z,4.40
2019-02-18T06:53:09.282Z,4.90
2019-02-18T06:55:37.989Z,5.30
2019-02-18T06:58:27.267Z,5.90
2019-02-18T07:01:00.394Z,6.30
2019-02-18T07:03:43.379Z,6.70
2019-02-18T07:06:19.110Z,7.20
2019-02-18T07:08:59.762Z,8.20
2019-02-18T07:11:53.362Z,9.30
2019-02-18T07:14:22.089Z,10.30
2019-02-18T07:16:50.771Z,11.30
2019-02-18T07:19:19.907Z,12.10
2019-02-18T07:21:48.603Z,12.80
2019-02-18T07:24:17.271Z,13.20
2019-02-18T07:26:45.985Z,13.70
2019-02-18T07:29:14.740Z,14.00
2019-02-18T07:31:43.411Z,14.40
2019-02-18T07:34:12.306Z,14.80
2019-02-18T07:36:40.996Z,15.20
2019-02-18T07:39:09.661Z,15.50
2019-02-18T07:41:38.342Z,15.80
2019-02-18T07:44:07.026Z,15.80
2019-02-18T07:46:35.705Z,16.00
2019-02-18T07:49:04.375Z,16.50
2019-02-18T07:51:34.140Z,16.80
2019-02-18T07:54:02.977Z,17.00
2019-02-18T07:56:31.894Z,17.20
2019-02-18T07:59:00.665Z,17.30
2019-02-18T08:01:29.400Z,17.60
2019-02-18T08:03:58.383Z,17.70
2019-02-18T08:06:27.694Z,18.10
2019-02-18T08:08:56.605Z,18.20
2019-02-18T08:11:25.525Z,18.40
2019-02-18T08:13:54.223Z,18.40
2019-02-18T08:16:22.907Z,18.50
2019-02-18T08:18:51.622Z,18.80
2019-02-18T08:21:20.610Z,18.80
2019-02-18T08:23:59.438Z,18.90
2019-02-18T08:26:19.663Z,19.00
2019-02-18T08:28:49.279Z,19.20
2019-02-18T08:31:18.178Z,19.40
2019-02-18T08:33:47.090Z,19.40
2019-02-18T08:36:15.794Z,19.90
2019-02-18T08:38:44.754Z,20.40
2019-02-18T08:41:13.687Z,20.50
2019-02-18T08:43:42.391Z,20.90
2019-02-18T08:46:11.182Z,21.30
2019-02-18T08:48:40.025Z,21.80
2019-02-18T08:51:08.789Z,22.10
2019-02-18T08:53:37.715Z,22.00
2019-02-18T08:56:08.046Z,22.00
2019-02-18T08:58:37.156Z,22.10
2019-02-18T09:01:06.275Z,22.00
2019-02-18T09:03:35.007Z,22.30
2019-02-18T09:06:04.017Z,22.60
2019-02-18T09:08:33.903Z,22.90
2019-02-18T09:11:02.592Z,23.10
2019-02-18T09:13:31.631Z,23.40
2019-02-18T09:16:00.690Z,23.50
2019-02-18T09:18:29.720Z,23.50
2019-02-18T09:20:58.442Z,23.30
2019-02-18T09:23:37.434Z,23.20
2019-02-18T09:26:06.661Z,23.60
2019-02-18T09:28:36.103Z,23.60
2019-02-18T09:31:04.820Z,23.70
2019-02-18T09:33:33.853Z,23.90
2019-02-18T09:36:02.542Z,23.70
2019-02-18T09:38:31.290Z,24.00
2019-02-18T09:40:59.998Z,24.20
2019-02-18T09:43:28.998Z,24.50
2019-02-18T09:45:58.098Z,24.60
2019-02-18T09:48:26.870Z,25.00
2019-02-18T09:50:55.789Z,25.10
2019-02-18T09:53:30.745Z,25.10
2019-02-18T09:56:02.195Z,25.20
2019-02-18T09:58:31.672Z,25.10
2019-02-18T10:01:04.411Z,25.10
2019-02-18T10:03:33.170Z,25.10
2019-02-18T10:06:02.229Z,25.40
2019-02-18T10:08:32.311Z,25.60
2019-02-18T10:11:03.132Z,25.40
2019-02-18T10:13:31.894Z,25.00
2019-02-18T10:16:00.767Z,24.80
2019-02-18T10:18:30.956Z,24.80
2019-02-18T10:20:59.746Z,24.40
2019-02-18T10:23:28.577Z,24.50
2019-02-18T10:25:57.665Z,24.80
2019-02-18T10:28:26.647Z,25.00
2019-02-18T10:30:55.323Z,24.60
2019-02-18T10:33:24.258Z,24.50
2019-02-18T10:35:52.975Z,24.70
2019-02-18T10:38:21.875Z,24.60
2019-02-18T10:40:51.009Z,24.10
2019-02-18T10:43:19.686Z,23.70
2019-02-18T10:45:48.398Z,23.40
2019-02-18T10:48:17.700Z,23.30
2019-02-18T10:50:46.550Z,23.40
2019-02-18T10:53:15.474Z,22.80
2019-02-18T10:55:44.250Z,22.50
2019-02-18T10:58:13.379Z,22.40
2019-02-18T11:00:42.088Z,22.40
2019-02-18T11:03:10.856Z,21.90
2019-02-18T11:05:39.894Z,21.20
2019-02-18T11:08:08.561Z,19.70
2019-02-18T11:10:37.315Z,18.80
2019-02-18T11:13:06.918Z,18.00
2019-02-18T11:15:35.927Z,17.30
2019-02-18T11:18:05.092Z,16.80
2019-02-18T11:20:33.830Z,16.40
2019-02-18T11:23:02.623Z,16.20
2019-02-18T11:25:31.906Z,16.00
2019-02-18T11:28:01.082Z,15.80
2019-02-18T11:30:29.947Z,15.70
2019-02-18T11:32:58.641Z,15.60
2019-02-18T11:35:27.791Z,15.40
2019-02-18T11:37:56.783Z,15.30
2019-02-18T11:40:25.773Z,15.20
2019-02-18T11:42:54.732Z,15.20
2019-02-18T11:45:25.772Z,15.10
2019-02-18T11:47:54.481Z,15.00
2019-02-18T11:50:23.138Z,15.00
2019-02-18T11:52:51.806Z,15.10
2019-02-18T11:55:20.530Z,15.00
2019-02-18T11:57:49.725Z,15.10
2019-02-18T12:00:18.683Z,15.10
2019-02-18T12:02:47.786Z,15.20
2019-02-18T12:05:16.530Z,15.10
2019-02-18T12:07:45.285Z,15.20
2019-02-18T12:10:14.304Z,15.20
2019-02-18T12:12:43.347Z,15.20
2019-02-18T12:15:12.378Z,15.20
2019-02-18T12:17:41.250Z,15.20
2019-02-18T12:20:11.879Z,15.20
2019-02-18T12:22:40.886Z,15.20
2019-02-18T12:25:10.252Z,15.10
2019-02-18T12:27:39.289Z,15.00
2019-02-18T12:30:09.045Z,15.10
2019-02-18T12:32:37.904Z,15.20
2019-02-18T12:35:06.829Z,15.20
2019-02-18T12:37:35.509Z,15.20
2019-02-18T12:40:04.712Z,15.10
2019-02-18T12:42:33.858Z,15.10
2019-02-18T12:45:02.537Z,15.20
2019-02-18T12:47:31.598Z,15.20
2019-02-18T12:50:00.633Z,15.20
2019-02-18T12:52:30.912Z,15.20
2019-02-18T12:55:00.499Z,15.20
2019-02-18T12:57:29.663Z,15.20
2019-02-18T13:00:02.155Z,15.20
2019-02-18T13:02:31.003Z,15.20
2019-02-18T13:04:59.802Z,15.20
2019-02-18T13:07:28.829Z,15.20
2019-02-18T13:09:57.694Z,15.10
2019-02-18T13:12:27.735Z,15.10
2019-02-18T13:14:56.494Z,15.20
2019-02-18T13:17:32.005Z,15.20
2019-02-18T13:20:00.805Z,15.20
2019-02-18T13:22:29.628Z,15.20
2019-02-18T13:24:58.400Z,15.20
2019-02-18T13:27:29.271Z,15.20
2019-02-18T13:29:57.995Z,15.10
2019-02-18T13:32:27.409Z,15.10
2019-02-18T13:34:56.262Z,15.20
2019-02-18T13:37:25.112Z,15.20
2019-02-18T13:39:54.264Z,15.10
2019-02-18T13:42:23.082Z,15.20
2019-02-18T13:44:52.032Z,15.20
2019-02-18T13:47:21.131Z,15.20
2019-02-18T13:49:50.300Z,15.20
2019-02-18T13:52:22.171Z,15.10
2019-02-18T13:54:51.126Z,15.10
2019-02-18T13:57:20.243Z,15.10
2019-02-18T13:59:49.120Z,15.10
2019-02-18T14:02:22.821Z,15.10
2019-02-18T14:04:51.598Z,15.00
2019-02-18T14:07:20.329Z,14.90
2019-02-18T14:09:49.265Z,15.00
2019-02-18T14:12:18.126Z,14.90
2019-02-18T14:14:47.154Z,14.90
2019-02-18T14:17:17.488Z,14.90
2019-02-18T14:19:46.498Z,14.90
2019-02-18T14:22:15.461Z,14.90
2019-02-18T14:24:44.362Z,14.90
2019-02-18T14:27:13.565Z,14.90
2019-02-18T14:29:42.553Z,14.90
2019-02-18T14:32:15.871Z,14.80
2019-02-18T14:34:45.275Z,14.90
2019-02-18T14:37:14.265Z,14.80
2019-02-18T14:39:43.116Z,14.80
2019-02-18T14:42:12.310Z,14.80
2019-02-18T14:44:41.535Z,14.80
2019-02-18T14:47:10.246Z,14.80
2019-02-18T14:49:39.026Z,14.80
2019-02-18T14:52:08.208Z,14.80
2019-02-18T14:54:37.037Z,14.80
2019-02-18T14:57:05.839Z,14.70
2019-02-18T14:59:34.958Z,14.70
2019-02-18T15:02:03.713Z,14.70
2019-02-18T15:04:32.498Z,14.60
2019-02-18T15:07:01.438Z,14.60
2019-02-18T15:09:30.226Z,14.60
2019-02-18T15:11:59.615Z,14.50
2019-02-18T15:14:28.382Z,14.50
2019-02-18T15:16:57.329Z,14.40
2019-02-18T15:19:26.387Z,14.40
2019-02-18T15:21:55.378Z,14.30
2019-02-18T15:24:24.168Z,14.30
2019-02-18T15:26:52.998Z,14.20
2019-02-18T15:29:21.759Z,14.20
2019-02-18T15:31:51.553Z,14.20
2019-02-18T15:34:20.424Z,14.10
2019-02-18T15:36:52.222Z,14.10
2019-02-18T15:39:21.295Z,14.00
2019-02-18T15:41:50.098Z,13.90
2019-02-18T15:44:19.131Z,13.90
2019-02-18T15:46:48.472Z,13.90
2019-02-18T15:49:17.692Z,13.80
2019-02-18T15:51:46.550Z,13.80
2019-02-18T15:54:15.529Z,13.70
2019-02-18T15:56:44.611Z,13.60
2019-02-18T15:59:13.824Z,13.60
2019-02-18T16:01:42.753Z,13.60
2019-02-18T16:04:11.790Z,13.60
2019-02-18T16:06:40.774Z,13.50
2019-02-18T16:09:09.858Z,13.40
2019-02-18T16:11:38.949Z,13.30
2019-02-18T16:14:07.701Z,13.20
2019-02-18T16:16:36.865Z,13.10
2019-02-18T16:19:07.720Z,13.00
2019-02-18T16:21:36.442Z,12.90
2019-02-18T16:24:05.887Z,12.90
2019-02-18T16:26:35.230Z,12.80
2019-02-18T16:29:04.047Z,12.70
2019-02-18T16:31:33.181Z,12.50
2019-02-18T16:34:02.549Z,12.40
2019-02-18T16:36:31.642Z,12.30
2019-02-18T16:39:01.078Z,12.20
2019-02-18T16:41:30.106Z,12.10
2019-02-18T16:43:59.092Z,12.00
2019-02-18T16:46:31.527Z,11.90
2019-02-18T16:49:00.534Z,11.80
2019-02-18T16:51:29.213Z,11.70
2019-02-18T16:53:58.562Z,11.50
2019-02-18T16:56:27.954Z,11.30
2019-02-18T16:58:56.952Z,11.30
2019-02-18T17:01:28.048Z,11.20
2019-02-18T17:03:56.801Z,11.20
2019-02-18T17:06:25.707Z,11.10
2019-02-18T17:08:54.680Z,11.10
2019-02-18T17:11:23.999Z,11.00
2019-02-18T17:13:52.850Z,10.90
2019-02-18T17:16:21.916Z,10.90
2019-02-18T17:18:50.988Z,10.80
2019-02-18T17:21:19.836Z,10.70
2019-02-18T17:23:48.810Z,10.60
2019-02-18T17:26:17.749Z,10.50
2019-02-18T17:28:46.491Z,10.40
2019-02-18T17:31:15.379Z,10.30
2019-02-18T17:33:44.548Z,10.20
2019-02-18T17:36:13.552Z,10.20
2019-02-18T17:38:42.589Z,10.10
2019-02-18T17:41:11.313Z,10.10
2019-02-18T17:43:41.757Z,10.00
2019-02-18T17:46:10.734Z,9.90
2019-02-18T17:48:39.605Z,9.90
2019-02-18T17:51:08.328Z,9.90
2019-02-18T17:53:37.085Z,9.90
2019-02-18T17:56:06.101Z,9.80
2019-02-18T17:58:35.123Z,9.80
2019-02-18T18:01:06.939Z,9.70
2019-02-18T18:03:36.576Z,9.70
2019-02-18T18:06:05.627Z,9.70
2019-02-18T18:08:34.358Z,9.60
2019-02-18T18:11:03.449Z,9.60
2019-02-18T18:13:32.690Z,9.70
2019-02-18T18:16:02.748Z,9.60
2019-02-18T18:18:31.454Z,9.60
2019-02-18T18:21:00.322Z,9.60
2019-02-18T18:23:29.218Z,9.60
2019-02-18T18:25:58.259Z,9.50
2019-02-18T18:28:27.074Z,9.50
2019-02-18T18:30:56.070Z,9.40
2019-02-18T18:33:24.851Z,9.40
2019-02-18T18:35:53.628Z,9.30
2019-02-18T18:38:22.841Z,9.20
2019-02-18T18:40:51.627Z,9.20
2019-02-18T18:43:20.314Z,9.10
2019-02-18T18:45:48.984Z,9.10
2019-02-18T18:48:17.905Z,9.00
2019-02-18T18:50:47.043Z,8.90
2019-02-18T18:53:16.162Z,8.90
2019-02-18T18:55:45.266Z,8.80
2019-02-18T18:58:14.040Z,8.70
2019-02-18T19:00:43.322Z,8.60
2019-02-18T19:03:12.458Z,8.50
2019-02-18T19:05:41.184Z,8.50
2019-02-18T19:08:09.860Z,8.40
2019-02-18T19:10:38.558Z,8.40
2019-02-18T19:13:07.339Z,8.30
2019-02-18T19:15:36.934Z,8.20
2019-02-18T19:18:06.815Z,8.20
2019-02-18T19:20:36.148Z,8.20
2019-02-18T19:23:04.827Z,8.20
2019-02-18T19:25:34.449Z,8.20
2019-02-18T19:28:03.368Z,8.20
2019-02-18T19:30:32.840Z,8.20
2019-02-18T19:33:01.565Z,8.10
2019-02-18T19:35:30.350Z,8.10
2019-02-18T19:37:59.415Z,8.00
2019-02-18T19:40:28.354Z,7.90
2019-02-18T19:42:57.503Z,7.90
2019-02-18T19:45:26.537Z,7.80
2019-02-18T19:47:55.223Z,7.80
2019-02-18T19:50:24.045Z,7.70
2019-02-18T19:52:52.706Z,7.70
2019-02-18T19:55:21.718Z,7.70
2019-02-18T19:57:50.387Z,7.70
2019-02-18T20:00:21.570Z,7.60
2019-02-18T20:02:50.627Z,7.60
2019-02-18T20:05:19.510Z,7.50
2019-02-18T20:07:48.400Z,7.50
2019-02-18T20:10:17.285Z,7.50
2019-02-18T20:12:46.162Z,7.50
2019-02-18T20:15:15.288Z,7.50
2019-02-18T20:17:44.503Z,7.40
2019-02-18T20:20:13.395Z,7.30
2019-02-18T20:22:42.046Z,7.30
2019-02-18T20:25:11.166Z,7.20
2019-02-18T20:27:39.867Z,7.20
2019-02-18T20:30:09.450Z,7.20
2019-02-18T20:32:38.698Z,7.20
2019-02-18T20:35:08.535Z,7.20
2019-02-18T20:37:37.293Z,7.10
2019-02-18T20:40:06.614Z,7.10
2019-02-18T20:42:35.347Z,7.10
2019-02-18T20:45:04.309Z,7.10
2019-02-18T20:47:34.576Z,7.10
2019-02-18T20:50:03.261Z,7.10
2019-02-18T20:52:32.286Z,7.10
2019-02-18T20:55:01.302Z,7.10
2019-02-18T20:57:30.369Z,7.00
2019-02-18T20:59:59.034Z,7.00
2019-02-18T21:02:28.048Z,6.90
2019-02-18T21:04:56.950Z,6.90
2019-02-18T21:07:25.955Z,6.80
2019-02-18T21:09:55.007Z,6.80
2019-02-18T21:12:24.054Z,6.80
2019-02-18T21:14:53.306Z,6.70
2019-02-18T21:17:22.175Z,6.70
2019-02-18T21:19:51.429Z,6.60
2019-02-18T21:22:20.670Z,6.60
2019-02-18T21:24:49.691Z,6.60
2019-02-18T21:27:18.807Z,6.50
2019-02-18T21:29:47.534Z,6.50
2019-02-18T21:32:16.400Z,6.40
2019-02-18T21:34:46.381Z,6.40
2019-02-18T21:37:15.746Z,6.40
2019-02-18T21:39:44.459Z,6.40
2019-02-18T21:42:13.234Z,6.50
2019-02-18T21:44:41.914Z,6.60
2019-02-18T21:47:10.886Z,6.60
2019-02-18T21:49:39.644Z,6.70
2019-02-18T21:52:09.039Z,6.70
2019-02-18T21:54:38.086Z,6.70
2019-02-18T21:57:07.162Z,6.70
2019-02-18T21:59:35.857Z,6.60
2019-02-18T22:02:05.070Z,6.60
2019-02-18T22:04:33.804Z,6.60
2019-02-18T22:07:02.546Z,6.50
2019-02-18T22:09:31.458Z,6.50
2019-02-18T22:12:00.158Z,6.50
2019-02-18T22:14:33.638Z,6.40
2019-02-18T22:16:59.610Z,6.30
2019-02-18T22:19:28.814Z,6.30
2019-02-18T22:21:57.809Z,6.20
2019-02-18T22:24:27.209Z,6.20
2019-02-18T22:26:56.597Z,6.10
2019-02-18T22:29:25.480Z,6.10
2019-02-18T22:31:54.169Z,6.10
2019-02-18T22:34:22.908Z,6.10
2019-02-18T22:36:52.072Z,6.20
2019-02-18T22:39:20.806Z,6.20
2019-02-18T22:41:49.487Z,6.20
2019-02-18T22:44:18.211Z,6.20
2019-02-18T22:46:47.278Z,6.20
2019-02-18T22:49:16.014Z,6.20
2019-02-18T22:51:44.780Z,6.30
2019-02-18T22:54:13.887Z,6.30
2019-02-18T22:56:42.742Z,6.30
2019-02-18T22:59:11.991Z,6.30
2019-02-18T23:01:42.548Z,6.20
2019-02-18T23:04:11.283Z,6.30
2019-02-18T23:06:40.035Z,6.30
2019-02-18T23:09:12.444Z,6.20
2019-02-18T23:11:41.283Z,6.20
2019-02-18T23:14:10.089Z,6.20
2019-02-18T23:16:38.770Z,6.20
2019-02-18T23:19:07.650Z,6.20
2019-02-18T23:21:36.586Z,6.20
2019-02-18T23:24:05.402Z,6.20
2019-02-18T23:26:34.378Z,6.20
2019-02-18T23:29:03.425Z,6.10
2019-02-18T23:31:32.185Z,6.10
2019-02-18T23:34:01.219Z,6.00
2019-02-18T23:36:29.902Z,6.00
2019-02-18T23:39:00.730Z,5.90
2019-02-18T23:41:29.406Z,5.90
2019-02-18T23:43:58.435Z,5.80
2019-02-18T23:46:27.123Z,5.80
2019-02-18T23:48:56.034Z,5.80
2019-02-18T23:51:24.966Z,5.80
2019-02-18T23:53:53.910Z,5.70
2019-02-18T23:56:22.554Z,5.60
2019-02-18T23:58:52.162Z,5.60
